sensor_id;sensor_type;location;lat;lon;timestamp;P1;durP1;ratioP1;P2;durP2;ratioP2
75112;SDS011;63692;47.338;8.520;2024-02-14T06:28:06;6.22;;;1.92;;
75112;SDS011;63692;47.338;8.520;2024-02-14T06:30:32;6.03;;;1.92;;
75112;SDS011;63692;47.338;8.520;2024-02-14T06:32:57;3.80;;;1.60;;
75112;SDS011;63692;47.338;8.520;2024-02-14T06:35:25;3.67;;;1.52;;
75112;SDS011;63692;47.338;8.520;2024-02-14T06:37:51;4.22;;;1.80;;
75112;SDS011;63692;47.338;8.520;2024-02-14T06:43:00;4.68;;;2.22;;
75112;SDS011;63692;47.338;8.520;2024-02-14T06:45:25;5.68;;;1.70;;
75112;SDS011;63692;47.338;8.520;2024-02-14T06:47:52;7.35;;;2.00;;
75112;SDS011;63692;47.338;8.520;2024-02-14T06:50:19;9.15;;;2.35;;
75112;SDS011;63692;47.338;8.520;2024-02-14T06:52:44;5.10;;;1.80;;
75112;SDS011;63692;47.338;8.520;2024-02-14T06:55:10;5.15;;;1.88;;
75112;SDS011;63692;47.338;8.520;2024-02-14T06:57:35;5.03;;;1.90;;
75112;SDS011;63692;47.338;8.520;2024-02-14T07:00:02;4.57;;;1.88;;
75112;SDS011;63692;47.338;8.520;2024-02-14T07:02:31;4.85;;;1.85;;
75112;SDS011;63692;47.338;8.520;2024-02-14T07:04:57;5.47;;;1.83;;
75112;SDS011;63692;47.338;8.520;2024-02-14T07:07:23;6.85;;;1.90;;
75112;SDS011;63692;47.338;8.520;2024-02-14T07:09:48;4.88;;;1.65;;
75112;SDS011;63692;47.338;8.520;2024-02-14T07:17:11;4.78;;;1.63;;
75112;SDS011;63692;47.338;8.520;2024-02-14T07:19:37;6.35;;;2.00;;
75112;SDS011;63692;47.338;8.520;2024-02-14T07:29:27;4.70;;;2.00;;
75112;SDS011;63692;47.338;8.520;2024-02-14T07:34:21;4.68;;;1.85;;
75112;SDS011;63692;47.338;8.520;2024-02-14T07:39:14;7.72;;;3.17;;
75112;SDS011;63692;47.338;8.520;2024-02-14T07:41:40;6.35;;;2.20;;
75112;SDS011;63692;47.338;8.520;2024-02-14T07:44:06;10.75;;;2.90;;
75112;SDS011;63692;47.338;8.520;2024-02-14T07:46:31;5.90;;;2.38;;
75112;SDS011;63692;47.338;8.520;2024-02-14T07:48:57;6.88;;;2.08;;
75112;SDS011;63692;47.338;8.520;2024-02-14T07:51:23;5.97;;;2.40;;
75112;SDS011;63692;47.338;8.520;2024-02-14T07:53:50;5.57;;;2.10;;
75112;SDS011;63692;47.338;8.520;2024-02-14T07:56:16;5.97;;;2.22;;
75112;SDS011;63692;47.338;8.520;2024-02-14T07:58:43;5.22;;;1.80;;
75112;SDS011;63692;47.338;8.520;2024-02-14T08:01:09;4.20;;;1.60;;
75112;SDS011;63692;47.338;8.520;2024-02-14T08:03:34;7.03;;;1.80;;
75112;SDS011;63692;47.338;8.520;2024-02-14T08:06:00;4.75;;;1.60;;
75112;SDS011;63692;47.338;8.520;2024-02-14T08:08:26;9.63;;;2.00;;
75112;SDS011;63692;47.338;8.520;2024-02-14T08:10:54;7.35;;;2.13;;
75112;SDS011;63692;47.338;8.520;2024-02-14T08:13:20;8.23;;;2.00;;
75112;SDS011;63692;47.338;8.520;2024-02-14T08:15:46;7.47;;;1.95;;
75112;SDS011;63692;47.338;8.520;2024-02-14T08:18:11;4.05;;;1.75;;
75112;SDS011;63692;47.338;8.520;2024-02-14T08:20:37;10.77;;;2.97;;
75112;SDS011;63692;47.338;8.520;2024-02-14T08:23:03;5.43;;;1.70;;
75112;SDS011;63692;47.338;8.520;2024-02-14T08:25:29;6.82;;;1.70;;
75112;SDS011;63692;47.338;8.520;2024-02-14T08:27:55;5.97;;;1.90;;
75112;SDS011;63692;47.338;8.520;2024-02-14T08:30:21;3.53;;;1.38;;
75112;SDS011;63692;47.338;8.520;2024-02-14T08:32:46;6.00;;;1.80;;
75112;SDS011;63692;47.338;8.520;2024-02-14T08:35:12;4.78;;;1.73;;
75112;SDS011;63692;47.338;8.520;2024-02-14T08:37:39;3.67;;;1.45;;
75112;SDS011;63692;47.338;8.520;2024-02-14T08:40:05;4.63;;;1.67;;
75112;SDS011;63692;47.338;8.520;2024-02-14T08:42:35;9.32;;;2.15;;
75112;SDS011;63692;47.338;8.520;2024-02-14T08:45:01;5.63;;;1.83;;
75112;SDS011;63692;47.338;8.520;2024-02-14T08:47:27;7.72;;;1.80;;
75112;SDS011;63692;47.338;8.520;2024-02-14T08:49:52;5.20;;;1.55;;
75112;SDS011;63692;47.338;8.520;2024-02-14T08:52:18;4.78;;;2.08;;
75112;SDS011;63692;47.338;8.520;2024-02-14T08:54:43;4.53;;;1.60;;
75112;SDS011;63692;47.338;8.520;2024-02-14T08:57:09;3.75;;;1.60;;
75112;SDS011;63692;47.338;8.520;2024-02-14T08:59:35;4.63;;;1.35;;
75112;SDS011;63692;47.338;8.520;2024-02-14T09:02:00;6.85;;;1.38;;
75112;SDS011;63692;47.338;8.520;2024-02-14T09:04:26;5.25;;;1.50;;
75112;SDS011;63692;47.338;8.520;2024-02-14T09:06:52;5.32;;;1.63;;
75112;SDS011;63692;47.338;8.520;2024-02-14T09:09:18;5.70;;;1.70;;
75112;SDS011;63692;47.338;8.520;2024-02-14T09:11:44;5.68;;;1.60;;
75112;SDS011;63692;47.338;8.520;2024-02-14T09:14:11;5.57;;;1.45;;
75112;SDS011;63692;47.338;8.520;2024-02-14T09:16:37;4.53;;;1.73;;
75112;SDS011;63692;47.338;8.520;2024-02-14T09:19:04;5.15;;;1.50;;
75112;SDS011;63692;47.338;8.520;2024-02-14T09:21:32;3.15;;;1.40;;
75112;SDS011;63692;47.338;8.520;2024-02-14T09:24:00;4.93;;;1.40;;
75112;SDS011;63692;47.338;8.520;2024-02-14T09:26:26;5.90;;;1.33;;
75112;SDS011;63692;47.338;8.520;2024-02-14T09:28:52;6.82;;;1.42;;
75112;SDS011;63692;47.338;8.520;2024-02-14T09:31:18;6.63;;;1.67;;
75112;SDS011;63692;47.338;8.520;2024-02-14T09:33:45;5.28;;;2.15;;
75112;SDS011;63692;47.338;8.520;2024-02-14T09:36:12;3.20;;;1.30;;
75112;SDS011;63692;47.338;8.520;2024-02-14T09:38:39;5.72;;;1.58;;
75112;SDS011;63692;47.338;8.520;2024-02-14T09:41:08;3.33;;;1.52;;
75112;SDS011;63692;47.338;8.520;2024-02-14T09:43:45;4.32;;;1.40;;
75112;SDS011;63692;47.338;8.520;2024-02-14T09:46:14;4.68;;;1.40;;
75112;SDS011;63692;47.338;8.520;2024-02-14T09:48:42;5.32;;;1.60;;
75112;SDS011;63692;47.338;8.520;2024-02-14T09:51:09;5.78;;;1.50;;
75112;SDS011;63692;47.338;8.520;2024-02-14T09:53:36;5.30;;;1.65;;
75112;SDS011;63692;47.338;8.520;2024-02-14T09:56:03;5.07;;;1.60;;
75112;SDS011;63692;47.338;8.520;2024-02-14T09:58:29;7.72;;;1.50;;
75112;SDS011;63692;47.338;8.520;2024-02-14T10:00:56;3.35;;;1.58;;
75112;SDS011;63692;47.338;8.520;2024-02-14T10:03:21;3.40;;;1.10;;
75112;SDS011;63692;47.338;8.520;2024-02-14T10:05:47;5.55;;;1.73;;
75112;SDS011;63692;47.338;8.520;2024-02-14T10:08:13;5.25;;;1.80;;
75112;SDS011;63692;47.338;8.520;2024-02-14T10:10:39;4.07;;;1.30;;
75112;SDS011;63692;47.338;8.520;2024-02-14T10:13:05;4.32;;;1.20;;
75112;SDS011;63692;47.338;8.520;2024-02-14T10:15:32;4.95;;;1.42;;
75112;SDS011;63692;47.338;8.520;2024-02-14T10:17:58;4.15;;;1.50;;
75112;SDS011;63692;47.338;8.520;2024-02-14T10:20:25;4.68;;;1.40;;
75112;SDS011;63692;47.338;8.520;2024-02-14T10:22:51;3.22;;;1.35;;
75112;SDS011;63692;47.338;8.520;2024-02-14T10:25:25;5.03;;;1.50;;
75112;SDS011;63692;47.338;8.520;2024-02-14T10:27:50;3.38;;;1.38;;
75112;SDS011;63692;47.338;8.520;2024-02-14T10:30:16;3.70;;;1.48;;
75112;SDS011;63692;47.338;8.520;2024-02-14T10:32:42;4.25;;;1.45;;
75112;SDS011;63692;47.338;8.520;2024-02-14T10:35:12;5.97;;;1.30;;
75112;SDS011;63692;47.338;8.520;2024-02-14T10:37:38;5.28;;;1.50;;
75112;SDS011;63692;47.338;8.520;2024-02-14T10:40:04;3.13;;;1.40;;
75112;SDS011;63692;47.338;8.520;2024-02-14T10:42:32;3.50;;;1.40;;
75112;SDS011;63692;47.338;8.520;2024-02-14T10:45:02;5.70;;;1.40;;
75112;SDS011;63692;47.338;8.520;2024-02-14T10:47:34;2.58;;;1.13;;
75112;SDS011;63692;47.338;8.520;2024-02-14T10:50:05;5.47;;;1.58;;
75112;SDS011;63692;47.338;8.520;2024-02-14T10:52:32;7.22;;;2.03;;
75112;SDS011;63692;47.338;8.520;2024-02-14T10:55:01;6.93;;;1.38;;
75112;SDS011;63692;47.338;8.520;2024-02-14T10:57:28;6.13;;;1.30;;
75112;SDS011;63692;47.338;8.520;2024-02-14T10:59:54;3.42;;;1.30;;
75112;SDS011;63692;47.338;8.520;2024-02-14T11:02:22;3.55;;;1.30;;
75112;SDS011;63692;47.338;8.520;2024-02-14T11:04:49;4.22;;;1.50;;
75112;SDS011;63692;47.338;8.520;2024-02-14T11:07:19;4.80;;;1.20;;
75112;SDS011;63692;47.338;8.520;2024-02-14T11:09:46;5.55;;;2.03;;
75112;SDS011;63692;47.338;8.520;2024-02-14T11:12:11;2.60;;;1.17;;
75112;SDS011;63692;47.338;8.520;2024-02-14T11:14:37;10.93;;;1.50;;
75112;SDS011;63692;47.338;8.520;2024-02-14T11:17:09;4.22;;;1.40;;
75112;SDS011;63692;47.338;8.520;2024-02-14T11:19:37;4.50;;;1.75;;
75112;SDS011;63692;47.338;8.520;2024-02-14T11:22:18;3.88;;;1.55;;
75112;SDS011;63692;47.338;8.520;2024-02-14T11:24:45;7.03;;;1.40;;
75112;SDS011;63692;47.338;8.520;2024-02-14T11:27:11;5.43;;;1.40;;
75112;SDS011;63692;47.338;8.520;2024-02-14T11:29:41;3.83;;;1.55;;
75112;SDS011;63692;47.338;8.520;2024-02-14T11:32:17;2.70;;;1.50;;
75112;SDS011;63692;47.338;8.520;2024-02-14T11:34:43;3.33;;;1.05;;
75112;SDS011;63692;47.338;8.520;2024-02-14T11:37:19;4.20;;;1.20;;
75112;SDS011;63692;47.338;8.520;2024-02-14T11:39:46;4.82;;;1.40;;
75112;SDS011;63692;47.338;8.520;2024-02-14T11:42:11;5.78;;;1.50;;
75112;SDS011;63692;47.338;8.520;2024-02-14T11:44:39;5.13;;;1.50;;
75112;SDS011;63692;47.338;8.520;2024-02-14T11:47:09;6.07;;;1.20;;
75112;SDS011;63692;47.338;8.520;2024-02-14T11:49:35;4.70;;;1.38;;
75112;SDS011;63692;47.338;8.520;2024-02-14T11:52:01;3.58;;;1.10;;
75112;SDS011;63692;47.338;8.520;2024-02-14T11:54:29;5.07;;;1.20;;
75112;SDS011;63692;47.338;8.520;2024-02-14T11:56:55;4.30;;;1.20;;
75112;SDS011;63692;47.338;8.520;2024-02-14T11:59:20;3.17;;;1.10;;
75112;SDS011;63692;47.338;8.520;2024-02-14T12:01:48;2.83;;;1.20;;
75112;SDS011;63692;47.338;8.520;2024-02-14T12:04:16;2.97;;;1.50;;
75112;SDS011;63692;47.338;8.520;2024-02-14T12:06:43;4.07;;;1.42;;
75112;SDS011;63692;47.338;8.520;2024-02-14T12:09:09;4.70;;;1.30;;
75112;SDS011;63692;47.338;8.520;2024-02-14T12:11:38;4.05;;;1.33;;
75112;SDS011;63692;47.338;8.520;2024-02-14T12:14:07;3.40;;;1.20;;
75112;SDS011;63692;47.338;8.520;2024-02-14T12:16:36;3.35;;;1.20;;
75112;SDS011;63692;47.338;8.520;2024-02-14T12:19:09;4.05;;;1.33;;
75112;SDS011;63692;47.338;8.520;2024-02-14T12:21:40;4.25;;;1.20;;
75112;SDS011;63692;47.338;8.520;2024-02-14T12:24:08;3.47;;;1.40;;
75112;SDS011;63692;47.338;8.520;2024-02-14T12:26:35;3.83;;;1.27;;
75112;SDS011;63692;47.338;8.520;2024-02-14T12:29:03;4.25;;;1.17;;
75112;SDS011;63692;47.338;8.520;2024-02-14T12:31:29;3.70;;;1.15;;
75112;SDS011;63692;47.338;8.520;2024-02-14T12:33:56;3.00;;;1.13;;
75112;SDS011;63692;47.338;8.520;2024-02-14T12:36:24;3.35;;;1.40;;
75112;SDS011;63692;47.338;8.520;2024-02-14T12:39:00;4.50;;;1.35;;
75112;SDS011;63692;47.338;8.520;2024-02-14T12:41:29;5.35;;;1.23;;
75112;SDS011;63692;47.338;8.520;2024-02-14T12:43:55;3.65;;;1.25;;
75112;SDS011;63692;47.338;8.520;2024-02-14T12:46:21;3.58;;;1.17;;
75112;SDS011;63692;47.338;8.520;2024-02-14T12:56:11;2.75;;;1.20;;
75112;SDS011;63692;47.338;8.520;2024-02-14T12:58:37;4.55;;;1.35;;
75112;SDS011;63692;47.338;8.520;2024-02-14T13:01:03;3.55;;;1.35;;
75112;SDS011;63692;47.338;8.520;2024-02-14T13:03:32;3.53;;;1.30;;
75112;SDS011;63692;47.338;8.520;2024-02-14T13:05:58;2.90;;;1.30;;
75112;SDS011;63692;47.338;8.520;2024-02-14T13:08:24;3.97;;;1.42;;
75112;SDS011;63692;47.338;8.520;2024-02-14T13:10:50;6.03;;;1.48;;
75112;SDS011;63692;47.338;8.520;2024-02-14T13:13:15;4.28;;;1.25;;
75112;SDS011;63692;47.338;8.520;2024-02-14T13:15:41;5.07;;;1.40;;
75112;SDS011;63692;47.338;8.520;2024-02-14T13:18:09;3.50;;;1.40;;
75112;SDS011;63692;47.338;8.520;2024-02-14T13:20:34;6.43;;;1.45;;
75112;SDS011;63692;47.338;8.520;2024-02-14T13:23:00;4.78;;;1.80;;
75112;SDS011;63692;47.338;8.520;2024-02-14T13:25:27;3.75;;;1.35;;
75112;SDS011;63692;47.338;8.520;2024-02-14T13:27:53;4.25;;;1.45;;
75112;SDS011;63692;47.338;8.520;2024-02-14T13:30:20;3.47;;;1.48;;
75112;SDS011;63692;47.338;8.520;2024-02-14T13:32:46;4.47;;;1.40;;
75112;SDS011;63692;47.338;8.520;2024-02-14T13:35:13;4.22;;;1.70;;
75112;SDS011;63692;47.338;8.520;2024-02-14T13:37:39;5.25;;;1.73;;
75112;SDS011;63692;47.338;8.520;2024-02-14T13:40:05;4.15;;;1.38;;
75112;SDS011;63692;47.338;8.520;2024-02-14T13:42:35;6.30;;;1.92;;
75112;SDS011;63692;47.338;8.520;2024-02-14T13:45:02;3.97;;;1.40;;
75112;SDS011;63692;47.338;8.520;2024-02-14T13:47:30;5.90;;;1.35;;
75112;SDS011;63692;47.338;8.520;2024-02-14T13:49:55;5.25;;;1.60;;
75112;SDS011;63692;47.338;8.520;2024-02-14T13:52:21;4.70;;;1.60;;
75112;SDS011;63692;47.338;8.520;2024-02-14T13:54:47;5.22;;;1.30;;
75112;SDS011;63692;47.338;8.520;2024-02-14T13:57:13;3.15;;;1.45;;
75112;SDS011;63692;47.338;8.520;2024-02-14T13:59:38;5.10;;;1.63;;
75112;SDS011;63692;47.338;8.520;2024-02-14T14:02:04;8.90;;;1.60;;
75112;SDS011;63692;47.338;8.520;2024-02-14T14:04:30;4.50;;;1.80;;
75112;SDS011;63692;47.338;8.520;2024-02-14T14:06:55;9.45;;;1.95;;
75112;SDS011;63692;47.338;8.520;2024-02-14T14:09:22;7.55;;;1.70;;
75112;SDS011;63692;47.338;8.520;2024-02-14T14:11:47;6.28;;;1.52;;
75112;SDS011;63692;47.338;8.520;2024-02-14T14:14:16;5.80;;;1.60;;
75112;SDS011;63692;47.338;8.520;2024-02-14T14:16:43;4.85;;;1.58;;
75112;SDS011;63692;47.338;8.520;2024-02-14T14:19:09;5.68;;;1.85;;
75112;SDS011;63692;47.338;8.520;2024-02-14T14:21:35;6.97;;;1.55;;
75112;SDS011;63692;47.338;8.520;2024-02-14T14:24:00;6.18;;;1.75;;
75112;SDS011;63692;47.338;8.520;2024-02-14T14:26:26;4.63;;;1.77;;
75112;SDS011;63692;47.338;8.520;2024-02-14T14:28:51;4.80;;;1.45;;
75112;SDS011;63692;47.338;8.520;2024-02-14T14:31:19;6.43;;;1.58;;
75112;SDS011;63692;47.338;8.520;2024-02-14T14:33:45;4.10;;;1.40;;
75112;SDS011;63692;47.338;8.520;2024-02-14T14:36:11;3.70;;;1.80;;
75112;SDS011;63692;47.338;8.520;2024-02-14T14:38:36;5.07;;;1.60;;
75112;SDS011;63692;47.338;8.520;2024-02-14T14:41:03;3.95;;;1.30;;
75112;SDS011;63692;47.338;8.520;2024-02-14T14:43:28;4.95;;;1.48;;
75112;SDS011;63692;47.338;8.520;2024-02-14T14:45:54;6.07;;;1.90;;
75112;SDS011;63692;47.338;8.520;2024-02-14T14:48:22;3.70;;;1.25;;
75112;SDS011;63692;47.338;8.520;2024-02-14T14:53:17;8.20;;;2.20;;
75112;SDS011;63692;47.338;8.520;2024-02-14T14:55:53;9.32;;;2.72;;
75112;SDS011;63692;47.338;8.520;2024-02-14T14:58:22;8.52;;;1.80;;
75112;SDS011;63692;47.338;8.520;2024-02-14T15:00:55;4.40;;;1.73;;
75112;SDS011;63692;47.338;8.520;2024-02-14T15:03:24;5.05;;;1.80;;
75112;SDS011;63692;47.338;8.520;2024-02-14T15:05:50;7.05;;;2.00;;
75112;SDS011;63692;47.338;8.520;2024-02-14T15:08:17;5.60;;;1.90;;
75112;SDS011;63692;47.338;8.520;2024-02-14T15:10:48;4.50;;;1.73;;
75112;SDS011;63692;47.338;8.520;2024-02-14T15:13:15;4.05;;;1.40;;
75112;SDS011;63692;47.338;8.520;2024-02-14T15:15:41;7.60;;;1.70;;
75112;SDS011;63692;47.338;8.520;2024-02-14T15:18:07;5.97;;;1.70;;
75112;SDS011;63692;47.338;8.520;2024-02-14T15:20:33;5.20;;;1.65;;
75112;SDS011;63692;47.338;8.520;2024-02-14T15:23:01;5.53;;;2.10;;
75112;SDS011;63692;47.338;8.520;2024-02-14T15:25:27;4.28;;;1.65;;
75112;SDS011;63692;47.338;8.520;2024-02-14T15:27:53;3.92;;;1.42;;
75112;SDS011;63692;47.338;8.520;2024-02-14T15:30:22;5.60;;;1.42;;
75112;SDS011;63692;47.338;8.520;2024-02-14T15:33:07;5.30;;;1.65;;
75112;SDS011;63692;47.338;8.520;2024-02-14T15:35:51;4.20;;;1.60;;
75112;SDS011;63692;47.338;8.520;2024-02-14T15:38:18;7.07;;;3.55;;
75112;SDS011;63692;47.338;8.520;2024-02-14T15:40:48;9.60;;;5.88;;
75112;SDS011;63692;47.338;8.520;2024-02-14T15:43:20;7.93;;;3.13;;
75112;SDS011;63692;47.338;8.520;2024-02-14T15:45:46;8.93;;;3.45;;
75112;SDS011;63692;47.338;8.520;2024-02-14T15:48:13;8.30;;;3.70;;
75112;SDS011;63692;47.338;8.520;2024-02-14T15:50:40;9.02;;;3.92;;
75112;SDS011;63692;47.338;8.520;2024-02-14T15:53:08;7.82;;;3.70;;
75112;SDS011;63692;47.338;8.520;2024-02-14T15:55:34;6.82;;;3.10;;
75112;SDS011;63692;47.338;8.520;2024-02-14T15:58:00;7.13;;;3.50;;
75112;SDS011;63692;47.338;8.520;2024-02-14T16:00:29;8.52;;;3.25;;
75112;SDS011;63692;47.338;8.520;2024-02-14T16:02:56;7.53;;;3.08;;
75112;SDS011;63692;47.338;8.520;2024-02-14T16:05:22;6.35;;;2.85;;
75112;SDS011;63692;47.338;8.520;2024-02-14T16:07:48;6.93;;;2.72;;
75112;SDS011;63692;47.338;8.520;2024-02-14T16:10:14;8.20;;;2.50;;
75112;SDS011;63692;47.338;8.520;2024-02-14T16:12:43;7.47;;;2.63;;
75112;SDS011;63692;47.338;8.520;2024-02-14T16:15:10;5.00;;;1.70;;
75112;SDS011;63692;47.338;8.520;2024-02-14T16:17:37;7.97;;;1.70;;
75112;SDS011;63692;47.338;8.520;2024-02-14T16:20:06;4.43;;;2.10;;
75112;SDS011;63692;47.338;8.520;2024-02-14T16:22:32;19.48;;;9.18;;
75112;SDS011;63692;47.338;8.520;2024-02-14T16:27:34;7.80;;;4.10;;
75112;SDS011;63692;47.338;8.520;2024-02-14T16:30:04;8.02;;;3.40;;
75112;SDS011;63692;47.338;8.520;2024-02-14T16:32:34;5.57;;;3.20;;
75112;SDS011;63692;47.338;8.520;2024-02-14T16:35:00;10.15;;;4.15;;
75112;SDS011;63692;47.338;8.520;2024-02-14T16:37:26;11.45;;;4.13;;
75112;SDS011;63692;47.338;8.520;2024-02-14T16:39:52;8.75;;;3.40;;
75112;SDS011;63692;47.338;8.520;2024-02-14T16:42:21;8.70;;;3.10;;
75112;SDS011;63692;47.338;8.520;2024-02-14T16:44:47;10.93;;;3.05;;
75112;SDS011;63692;47.338;8.520;2024-02-14T16:47:12;9.00;;;3.42;;
75112;SDS011;63692;47.338;8.520;2024-02-14T16:49:38;7.32;;;3.20;;
75112;SDS011;63692;47.338;8.520;2024-02-14T16:52:04;7.65;;;3.10;;
75112;SDS011;63692;47.338;8.520;2024-02-14T16:54:30;7.03;;;2.85;;
75112;SDS011;63692;47.338;8.520;2024-02-14T16:56:57;8.25;;;2.72;;
75112;SDS011;63692;47.338;8.520;2024-02-14T16:59:37;7.82;;;2.70;;
75112;SDS011;63692;47.338;8.520;2024-02-14T17:02:05;9.73;;;2.75;;
75112;SDS011;63692;47.338;8.520;2024-02-14T17:04:32;8.85;;;2.22;;
75112;SDS011;63692;47.338;8.520;2024-02-14T17:06:58;6.32;;;2.50;;
75112;SDS011;63692;47.338;8.520;2024-02-14T17:09:23;4.22;;;1.50;;
75112;SDS011;63692;47.338;8.520;2024-02-14T17:34:14;7.85;;;1.80;;
75112;SDS011;63692;47.338;8.520;2024-02-14T17:36:40;5.32;;;1.58;;
75112;SDS011;63692;47.338;8.520;2024-02-14T17:39:05;4.15;;;1.80;;
75112;SDS011;63692;47.338;8.520;2024-02-14T17:41:31;8.15;;;1.77;;
75112;SDS011;63692;47.338;8.520;2024-02-14T17:48:56;4.43;;;1.55;;
75112;SDS011;63692;47.338;8.520;2024-02-14T17:51:23;5.97;;;2.00;;
75112;SDS011;63692;47.338;8.520;2024-02-14T17:53:52;4.63;;;1.70;;
75112;SDS011;63692;47.338;8.520;2024-02-14T17:56:18;5.07;;;1.92;;
75112;SDS011;63692;47.338;8.520;2024-02-14T17:58:44;6.05;;;1.80;;
